createdAt,value
2022-11-18T00:01:55.927Z,30.11
2022-11-18T00:04:26.143Z,30.13
2022-11-18T00:06:56.363Z,30.10
2022-11-18T00:09:26.495Z,30.10
2022-11-18T00:12:14.770Z,30.11
2022-11-18T00:14:44.877Z,30.11
2022-11-18T00:17:14.875Z,30.12
2022-11-18T00:19:45.087Z,30.12
2022-11-18T00:22:16.846Z,30.12
2022-11-18T00:24:47.000Z,30.12
2022-11-18T00:27:17.004Z,30.12
2022-11-18T00:29:46.948Z,30.11
2022-11-18T00:32:16.861Z,30.12
2022-11-18T00:34:46.897Z,30.12
2022-11-18T00:37:18.641Z,30.12
2022-11-18T00:39:48.779Z,30.13
2022-11-18T00:42:37.250Z,30.13
2022-11-18T00:45:07.722Z,30.15
2022-11-18T00:47:37.841Z,30.15
2022-11-18T00:50:08.309Z,30.15
2022-11-18T00:52:38.893Z,30.15
2022-11-18T00:55:09.591Z,30.17
2022-11-18T00:57:39.775Z,30.17
2022-11-18T01:00:10.560Z,30.16
2022-11-18T01:02:40.792Z,30.17
2022-11-18T01:05:11.058Z,30.19
2022-11-18T01:07:41.389Z,30.18
2022-11-18T01:10:12.095Z,30.19
2022-11-18T01:13:00.650Z,30.18
2022-11-18T01:15:30.942Z,30.19
2022-11-18T01:18:01.209Z,30.18
2022-11-18T01:20:31.495Z,30.18
2022-11-18T01:23:01.503Z,30.18
2022-11-18T01:25:32.612Z,30.19
2022-11-18T01:28:02.964Z,30.20
2022-11-18T01:30:36.281Z,30.19
2022-11-18T01:33:07.635Z,30.19
2022-11-18T01:35:39.885Z,30.18
2022-11-18T01:38:11.251Z,30.20
2022-11-18T01:40:41.191Z,30.21
2022-11-18T01:43:20.422Z,30.21
2022-11-18T01:45:53.572Z,30.23
2022-11-18T01:48:29.112Z,30.23
2022-11-18T01:51:05.698Z,30.23
2022-11-18T01:53:40.990Z,30.24
2022-11-18T01:56:17.005Z,30.23
2022-11-18T01:58:59.750Z,30.23
2022-11-18T02:01:30.065Z,30.22
2022-11-18T02:04:00.838Z,30.25
2022-11-18T02:06:31.148Z,30.25
2022-11-18T02:09:01.721Z,30.27
2022-11-18T02:11:51.722Z,30.24
2022-11-18T02:14:25.291Z,30.25
2022-11-18T02:17:07.756Z,30.25
2022-11-18T02:19:49.827Z,30.25
2022-11-18T02:22:26.506Z,30.25
2022-11-18T02:25:08.886Z,30.25
2022-11-18T02:27:47.461Z,30.26
2022-11-18T02:30:21.040Z,30.26
2022-11-18T02:33:00.206Z,30.29
2022-11-18T02:35:38.362Z,30.28
2022-11-18T02:38:25.979Z,30.29
2022-11-18T02:41:01.986Z,30.27
2022-11-18T02:43:38.327Z,30.27
2022-11-18T02:46:14.211Z,30.28
2022-11-18T02:48:49.539Z,30.29
2022-11-18T02:51:25.970Z,30.28
2022-11-18T02:53:59.678Z,30.28
2022-11-18T02:56:30.758Z,30.30
2022-11-18T02:59:00.996Z,30.29
2022-11-18T03:01:37.170Z,30.30
2022-11-18T03:04:28.160Z,30.31
2022-11-18T03:07:25.464Z,30.31
2022-11-18T03:09:57.065Z,30.31
2022-11-18T03:12:40.598Z,30.31
2022-11-18T03:15:41.168Z,30.30
2022-11-18T03:18:57.769Z,30.31
2022-11-18T03:21:48.060Z,30.32
2022-11-18T03:24:28.947Z,30.32
2022-11-18T03:27:08.140Z,30.33
2022-11-18T03:29:45.542Z,30.34
2022-11-18T03:32:25.837Z,30.33
2022-11-18T03:35:02.960Z,30.34
2022-11-18T03:37:37.354Z,30.36
2022-11-18T03:40:15.007Z,30.36
2022-11-18T03:42:51.861Z,30.35
2022-11-18T03:45:33.743Z,30.36
2022-11-18T03:48:17.760Z,30.36
2022-11-18T03:50:56.434Z,30.37
2022-11-18T03:53:30.533Z,30.37
2022-11-18T03:56:10.492Z,30.36
2022-11-18T03:59:00.328Z,30.37
2022-11-18T04:02:09.129Z,30.36
2022-11-18T04:04:40.532Z,30.36
2022-11-18T04:07:28.834Z,30.36
2022-11-18T04:10:22.589Z,30.38
2022-11-18T04:13:06.472Z,30.41
2022-11-18T04:15:40.858Z,30.42
2022-11-18T04:18:12.088Z,30.43
2022-11-18T04:20:42.600Z,30.45
2022-11-18T04:23:12.872Z,30.45
2022-11-18T04:25:42.985Z,30.46
2022-11-18T04:28:13.688Z,30.46
2022-11-18T04:30:43.996Z,30.48
2022-11-18T04:33:14.329Z,30.48
2022-11-18T04:35:44.541Z,30.49
2022-11-18T04:38:19.109Z,30.48
2022-11-18T04:40:51.960Z,30.49
2022-11-18T04:43:22.223Z,30.50
2022-11-18T04:45:52.510Z,30.50
2022-11-18T04:48:22.766Z,30.50
2022-11-18T04:50:53.106Z,30.50
2022-11-18T04:53:23.347Z,30.50
2022-11-18T04:55:53.588Z,30.50
2022-11-18T04:58:23.865Z,30.51
2022-11-18T05:00:54.192Z,30.52
2022-11-18T05:03:25.453Z,30.52
2022-11-18T05:05:55.968Z,30.53
2022-11-18T05:08:27.288Z,30.53
2022-11-18T05:11:17.332Z,30.54
2022-11-18T05:13:47.513Z,30.55
2022-11-18T05:16:17.552Z,30.56
2022-11-18T05:18:47.748Z,30.55
2022-11-18T05:21:18.008Z,30.56
2022-11-18T05:23:48.211Z,30.58
2022-11-18T05:26:18.800Z,30.57
2022-11-18T05:28:49.079Z,30.57
2022-11-18T05:31:19.920Z,30.57
2022-11-18T05:33:50.491Z,30.58
2022-11-18T05:36:22.356Z,30.57
2022-11-18T05:38:53.161Z,30.58
2022-11-18T05:41:41.429Z,30.59
2022-11-18T05:44:11.782Z,30.60
2022-11-18T05:46:42.036Z,30.61
2022-11-18T05:49:12.254Z,30.62
2022-11-18T05:51:42.492Z,30.64
2022-11-18T05:54:14.270Z,30.64
2022-11-18T05:56:47.353Z,30.65
2022-11-18T05:59:18.238Z,30.63
2022-11-18T06:02:26.632Z,30.66
2022-11-18T06:05:02.252Z,30.66
2022-11-18T06:07:45.902Z,30.63
2022-11-18T06:10:23.494Z,30.65
2022-11-18T06:12:58.425Z,30.65
2022-11-18T06:15:37.071Z,30.65
2022-11-18T06:18:21.349Z,30.65
2022-11-18T06:20:53.599Z,30.66
2022-11-18T06:23:24.275Z,30.66
2022-11-18T06:25:55.631Z,30.68
2022-11-18T06:28:26.358Z,30.67
2022-11-18T06:30:56.824Z,30.68
2022-11-18T06:33:27.261Z,30.71
2022-11-18T06:35:57.608Z,30.71
2022-11-18T06:38:28.061Z,30.68
2022-11-18T06:41:07.239Z,30.70
2022-11-18T06:43:46.357Z,30.71
2022-11-18T06:46:37.564Z,30.71
2022-11-18T06:49:08.054Z,30.70
2022-11-18T06:51:38.390Z,30.69
2022-11-18T06:54:10.888Z,30.72
2022-11-18T06:56:41.968Z,30.70
2022-11-18T06:59:12.404Z,30.70
2022-11-18T07:01:44.184Z,30.68
2022-11-18T07:04:14.434Z,30.67
2022-11-18T07:06:44.971Z,30.68
2022-11-18T07:09:15.542Z,30.70
2022-11-18T07:11:46.130Z,30.69
2022-11-18T07:14:16.362Z,30.70
2022-11-18T07:16:46.618Z,30.71
2022-11-18T07:19:17.221Z,30.72
2022-11-18T07:21:47.611Z,30.72
2022-11-18T07:24:18.904Z,30.73
2022-11-18T07:26:49.446Z,30.72
2022-11-18T07:29:19.762Z,30.73
2022-11-18T07:31:49.975Z,30.73
2022-11-18T07:34:21.494Z,30.73
2022-11-18T07:36:51.778Z,30.72
2022-11-18T07:39:21.827Z,30.72
2022-11-18T07:41:52.039Z,30.71
2022-11-18T07:44:22.592Z,30.72
2022-11-18T07:46:52.837Z,30.72
2022-11-18T07:49:23.092Z,30.70
2022-11-18T07:51:53.286Z,30.70
2022-11-18T07:54:23.294Z,30.73
2022-11-18T07:56:53.333Z,30.72
2022-11-18T07:59:23.407Z,30.73
2022-11-18T08:01:53.508Z,30.74
2022-11-18T08:04:23.541Z,30.75
2022-11-18T08:06:53.721Z,30.75
2022-11-18T08:09:24.012Z,30.75
2022-11-18T08:11:54.243Z,30.76
2022-11-18T08:14:26.330Z,30.75
2022-11-18T08:16:57.003Z,30.76
2022-11-18T08:19:27.216Z,30.76
2022-11-18T08:21:59.089Z,30.76
2022-11-18T08:24:29.294Z,30.78
2022-11-18T08:26:59.796Z,30.75
2022-11-18T08:29:30.756Z,30.75
2022-11-18T08:32:01.430Z,30.75
2022-11-18T08:34:31.892Z,30.76
2022-11-18T08:37:02.407Z,30.78
2022-11-18T08:39:32.667Z,30.79
2022-11-18T08:42:02.927Z,30.78
2022-11-18T08:44:35.550Z,30.79
2022-11-18T08:47:05.834Z,30.78
2022-11-18T08:49:35.865Z,30.77
2022-11-18T08:52:06.006Z,30.80
2022-11-18T08:54:36.235Z,30.79
2022-11-18T08:57:06.781Z,30.79
2022-11-18T08:59:37.243Z,30.79
2022-11-18T09:02:07.572Z,30.77
2022-11-18T09:04:37.808Z,30.73
2022-11-18T09:07:08.043Z,30.76
2022-11-18T09:09:39.031Z,30.74
2022-11-18T09:12:09.556Z,30.72
2022-11-18T09:17:30.119Z,30.72
2022-11-18T09:20:00.348Z,30.71
2022-11-18T09:22:30.772Z,30.72
2022-11-18T09:25:00.952Z,30.72
2022-11-18T09:27:31.234Z,30.70
2022-11-18T09:30:01.465Z,30.65
2022-11-18T09:32:31.751Z,30.64
2022-11-18T09:35:02.036Z,30.62
2022-11-18T09:37:32.537Z,30.60
2022-11-18T09:40:02.732Z,30.59
2022-11-18T09:42:48.894Z,30.54
2022-11-18T09:45:37.066Z,30.51
2022-11-18T09:48:45.578Z,30.45
2022-11-18T09:51:16.475Z,30.43
2022-11-18T09:53:48.335Z,30.41
2022-11-18T09:56:19.454Z,30.39
2022-11-18T09:58:50.373Z,30.38
2022-11-18T10:01:23.583Z,30.35
2022-11-18T10:03:54.709Z,30.34
2022-11-18T10:06:31.604Z,30.34
2022-11-18T10:09:10.893Z,30.32
2022-11-18T10:11:53.423Z,30.33
2022-11-18T10:15:00.110Z,30.31
2022-11-18T10:17:48.262Z,30.33
2022-11-18T10:20:53.462Z,30.30
2022-11-18T10:23:37.779Z,30.28
2022-11-18T10:26:08.036Z,30.26
2022-11-18T10:28:38.259Z,30.25
2022-11-18T10:31:14.467Z,30.28
2022-11-18T10:33:45.928Z,30.26
2022-11-18T10:36:30.229Z,30.23
2022-11-18T10:39:19.523Z,30.25
2022-11-18T10:41:54.952Z,30.18
2022-11-18T10:44:44.936Z,30.18
2022-11-18T10:47:35.342Z,30.18
2022-11-18T10:50:26.357Z,30.19
2022-11-18T10:52:56.784Z,30.23
2022-11-18T10:55:31.343Z,30.22
2022-11-18T10:58:10.389Z,30.21
2022-11-18T11:00:49.564Z,30.18
2022-11-18T11:03:29.825Z,30.18
2022-11-18T11:06:21.503Z,30.20
2022-11-18T11:08:54.069Z,30.19
2022-11-18T11:11:30.937Z,30.19
2022-11-18T11:14:16.826Z,30.18
2022-11-18T11:17:15.087Z,30.19
2022-11-18T11:20:22.730Z,30.16
2022-11-18T11:22:53.442Z,30.17
2022-11-18T11:29:00.423Z,30.15
2022-11-18T11:31:42.840Z,30.12
2022-11-18T11:34:13.831Z,30.14
2022-11-18T11:36:53.594Z,30.14
2022-11-18T11:39:26.768Z,30.14
2022-11-18T11:42:35.569Z,30.13
2022-11-18T11:45:21.101Z,30.18
2022-11-18T11:48:06.195Z,30.14
2022-11-18T11:51:05.963Z,30.15
2022-11-18T11:53:53.786Z,30.13
2022-11-18T11:56:32.981Z,30.17
2022-11-18T11:59:28.561Z,30.16
2022-11-18T12:02:02.495Z,30.15
2022-11-18T12:04:41.556Z,30.17
2022-11-18T12:07:29.104Z,30.15
2022-11-18T12:10:20.081Z,30.16
2022-11-18T12:13:15.728Z,30.17
2022-11-18T12:16:07.462Z,30.15
2022-11-18T12:18:55.529Z,30.17
2022-11-18T12:21:50.361Z,30.15
2022-11-18T12:24:20.734Z,30.17
2022-11-18T12:26:53.151Z,30.17
2022-11-18T12:29:27.232Z,30.17
2022-11-18T12:32:04.152Z,30.17
2022-11-18T12:34:46.487Z,30.17
2022-11-18T12:37:28.804Z,30.17
2022-11-18T12:39:59.911Z,30.15
2022-11-18T12:43:06.193Z,30.17
2022-11-18T12:45:46.625Z,30.13
2022-11-18T12:48:37.038Z,30.14
2022-11-18T12:51:21.095Z,30.16
2022-11-18T12:53:53.224Z,30.14
2022-11-18T12:56:30.640Z,30.15
2022-11-18T12:59:02.764Z,30.12
2022-11-18T13:01:37.559Z,30.14
2022-11-18T13:04:24.793Z,30.17
2022-11-18T13:06:57.308Z,30.17
2022-11-18T13:09:29.548Z,30.17
2022-11-18T13:12:07.573Z,30.17
2022-11-18T13:15:02.207Z,30.17
2022-11-18T13:17:56.572Z,30.17
2022-11-18T13:20:35.368Z,30.17
2022-11-18T13:23:44.458Z,30.17
2022-11-18T13:26:30.078Z,30.19
2022-11-18T13:29:24.437Z,30.17
2022-11-18T13:32:07.156Z,30.19
2022-11-18T13:34:52.162Z,30.14
2022-11-18T13:37:33.419Z,30.16
2022-11-18T13:40:03.739Z,30.17
2022-11-18T13:42:34.859Z,30.09
2022-11-18T13:45:06.327Z,30.02
2022-11-18T13:47:54.023Z,30.18
2022-11-18T13:50:24.865Z,30.10
2022-11-18T13:53:18.208Z,29.98
2022-11-18T13:56:00.049Z,29.65
2022-11-18T13:59:02.735Z,29.65
2022-11-18T14:01:37.539Z,29.85
2022-11-18T14:04:10.497Z,29.99
2022-11-18T14:06:44.199Z,30.00
2022-11-18T14:09:14.432Z,30.01
2022-11-18T14:11:47.305Z,29.85
2022-11-18T14:14:32.395Z,29.86
2022-11-18T14:17:23.025Z,29.84
2022-11-18T14:19:55.995Z,29.85
2022-11-18T14:22:30.246Z,29.86
2022-11-18T14:25:22.512Z,29.93
2022-11-18T14:27:58.994Z,30.06
2022-11-18T14:31:10.561Z,29.93
2022-11-18T14:33:41.425Z,29.97
2022-11-18T14:36:14.454Z,29.99
2022-11-18T14:41:50.187Z,29.98
2022-11-18T14:44:22.668Z,29.91
2022-11-18T14:46:58.021Z,29.87
2022-11-18T14:49:30.378Z,29.91
2022-11-18T14:52:01.652Z,30.05
2022-11-18T14:54:32.484Z,30.00
2022-11-18T14:57:07.981Z,30.03
2022-11-18T14:59:38.363Z,30.08
2022-11-18T15:02:15.760Z,30.10
2022-11-18T15:04:46.156Z,30.09
2022-11-18T15:07:23.139Z,30.11
2022-11-18T15:09:54.350Z,30.12
2022-11-18T15:12:24.752Z,30.15
2022-11-18T15:14:54.793Z,30.22
2022-11-18T15:17:25.206Z,30.21
2022-11-18T15:19:55.396Z,30.21
2022-11-18T15:22:25.737Z,30.26
2022-11-18T15:24:55.794Z,30.27
2022-11-18T15:27:26.101Z,30.27
2022-11-18T15:30:01.458Z,30.30
2022-11-18T15:33:20.744Z,30.33
2022-11-18T15:35:52.008Z,30.31
2022-11-18T15:38:21.864Z,30.30
2022-11-18T15:40:52.009Z,30.29
2022-11-18T15:43:22.356Z,30.29
2022-11-18T15:46:00.414Z,30.29
2022-11-18T15:48:30.700Z,30.27
2022-11-18T15:51:00.761Z,30.28
2022-11-18T15:53:31.065Z,30.25
2022-11-18T15:56:26.147Z,30.31
2022-11-18T15:58:59.391Z,30.30
2022-11-18T16:01:33.158Z,30.29
2022-11-18T16:04:03.917Z,30.28
2022-11-18T16:06:34.831Z,30.27
2022-11-18T16:09:06.658Z,30.25
2022-11-18T16:11:55.197Z,30.54
2022-11-18T16:14:26.088Z,30.63
2022-11-18T16:16:58.665Z,30.60
2022-11-18T16:19:30.923Z,30.57
2022-11-18T16:22:01.293Z,30.62
2022-11-18T16:24:32.365Z,30.60
2022-11-18T16:27:04.679Z,30.44
2022-11-18T16:29:35.296Z,30.36
2022-11-18T16:32:15.316Z,30.27
2022-11-18T16:34:45.610Z,30.24
2022-11-18T16:37:15.972Z,30.21
2022-11-18T16:39:46.691Z,30.16
2022-11-18T16:42:17.354Z,30.15
2022-11-18T16:44:47.678Z,30.10
2022-11-18T16:47:18.041Z,30.11
2022-11-18T16:49:48.470Z,30.08
2022-11-18T16:52:19.193Z,30.10
2022-11-18T16:54:49.484Z,30.08
2022-11-18T16:57:19.684Z,30.08
2022-11-18T16:59:49.936Z,30.05
2022-11-18T17:02:22.575Z,30.06
2022-11-18T17:04:52.945Z,30.05
2022-11-18T17:07:24.121Z,30.07
2022-11-18T17:09:54.438Z,30.06
2022-11-18T17:12:24.692Z,30.07
2022-11-18T17:14:54.938Z,30.07
2022-11-18T17:17:25.212Z,30.08
2022-11-18T17:19:55.454Z,30.07
2022-11-18T17:22:25.752Z,30.07
2022-11-18T17:24:57.100Z,30.08
2022-11-18T17:27:29.001Z,30.08
2022-11-18T17:29:59.206Z,30.06
2022-11-18T17:32:29.502Z,30.07
2022-11-18T17:34:59.849Z,30.08
2022-11-18T17:37:32.249Z,30.06
2022-11-18T17:40:02.556Z,30.06
2022-11-18T17:42:32.821Z,30.07
2022-11-18T17:45:02.845Z,30.04
2022-11-18T17:47:32.946Z,30.04
2022-11-18T17:50:03.267Z,30.02
2022-11-18T17:52:34.471Z,30.03
2022-11-18T17:55:05.498Z,30.04
2022-11-18T17:57:35.968Z,30.04
2022-11-18T18:00:06.867Z,30.05
2022-11-18T18:02:37.296Z,30.01
2022-11-18T18:05:07.898Z,30.02
2022-11-18T18:07:38.381Z,30.02
2022-11-18T18:10:09.048Z,30.01
2022-11-18T18:12:57.987Z,30.00
2022-11-18T18:15:29.369Z,30.00
2022-11-18T18:17:59.694Z,30.02
2022-11-18T18:20:30.173Z,30.02
2022-11-18T18:23:00.853Z,29.99
2022-11-18T18:25:31.090Z,30.00
2022-11-18T18:28:01.517Z,29.98
2022-11-18T18:30:31.796Z,29.99
2022-11-18T18:33:02.052Z,29.99
2022-11-18T18:35:32.335Z,29.99
2022-11-18T18:38:04.118Z,29.99
2022-11-18T18:40:35.138Z,29.98
2022-11-18T18:43:05.502Z,29.98
2022-11-18T18:45:54.095Z,29.98
2022-11-18T18:48:24.550Z,29.98
2022-11-18T18:50:55.068Z,29.98
2022-11-18T18:53:25.494Z,29.98
2022-11-18T18:55:59.154Z,29.97
2022-11-18T18:58:30.215Z,29.97
2022-11-18T19:01:11.266Z,29.98
2022-11-18T19:03:42.177Z,29.96
2022-11-18T19:09:11.731Z,29.97
2022-11-18T19:12:00.412Z,29.97
2022-11-18T19:14:31.122Z,29.96
2022-11-18T19:17:04.997Z,29.93
2022-11-18T19:19:57.819Z,29.95
2022-11-18T19:22:30.646Z,29.93
2022-11-18T19:25:01.881Z,29.89
2022-11-18T19:27:33.562Z,29.92
2022-11-18T19:30:03.849Z,29.94
2022-11-18T19:32:37.446Z,29.93
2022-11-18T19:35:09.499Z,29.93
2022-11-18T19:37:40.148Z,29.91
2022-11-18T19:40:11.958Z,29.91
2022-11-18T19:42:44.231Z,29.93
2022-11-18T19:45:14.759Z,29.92
2022-11-18T19:47:45.090Z,29.92
2022-11-18T19:50:15.627Z,29.92
2022-11-18T19:52:45.896Z,29.92
2022-11-18T19:55:16.203Z,29.91
2022-11-18T19:57:46.858Z,29.93
2022-11-18T20:00:18.052Z,29.90
2022-11-18T20:02:48.355Z,29.88
2022-11-18T20:05:37.385Z,29.88
2022-11-18T20:08:07.770Z,29.90
2022-11-18T20:10:38.063Z,29.90
2022-11-18T20:13:08.378Z,29.90
2022-11-18T20:15:38.762Z,29.90
2022-11-18T20:18:09.345Z,29.89
2022-11-18T20:20:40.913Z,29.88
2022-11-18T20:23:11.496Z,29.89
2022-11-18T20:25:41.969Z,29.90
2022-11-18T20:28:13.349Z,29.90
2022-11-18T20:30:43.372Z,29.89
2022-11-18T20:33:13.530Z,29.88
2022-11-18T20:35:44.169Z,29.89
2022-11-18T20:38:14.455Z,29.88
2022-11-18T20:40:44.997Z,29.87
2022-11-18T20:43:15.356Z,29.87
2022-11-18T20:45:48.622Z,29.86
2022-11-18T20:48:18.843Z,29.87
2022-11-18T20:50:49.180Z,29.85
2022-11-18T20:53:21.294Z,29.86
2022-11-18T20:55:55.160Z,29.87
2022-11-18T20:58:26.515Z,29.89
2022-11-18T21:01:01.488Z,29.86
2022-11-18T21:03:32.084Z,29.87
2022-11-18T21:06:13.842Z,29.86
2022-11-18T21:08:45.164Z,29.85
2022-11-18T21:11:16.478Z,29.85
2022-11-18T21:14:05.287Z,29.86
2022-11-18T21:16:35.659Z,29.84
2022-11-18T21:19:06.978Z,29.85
2022-11-18T21:21:46.694Z,29.84
2022-11-18T21:24:30.115Z,29.84
2022-11-18T21:27:05.486Z,29.83
2022-11-18T21:29:36.435Z,29.83
2022-11-18T21:32:07.077Z,29.82
2022-11-18T21:34:37.400Z,29.81
2022-11-18T21:37:07.617Z,29.81
2022-11-18T21:39:38.144Z,29.83
2022-11-18T21:42:08.570Z,29.84
2022-11-18T21:44:38.979Z,29.83
2022-11-18T21:47:09.780Z,29.80
2022-11-18T21:49:39.999Z,29.84
2022-11-18T21:52:10.693Z,29.83
2022-11-18T21:54:40.990Z,29.84
2022-11-18T21:57:11.421Z,29.83
2022-11-18T21:59:41.638Z,29.82
2022-11-18T22:02:16.246Z,29.83
2022-11-18T22:04:55.893Z,29.83
2022-11-18T22:07:27.278Z,29.82
2022-11-18T22:09:57.543Z,29.82
2022-11-18T22:12:28.295Z,29.82
2022-11-18T22:14:58.877Z,29.80
2022-11-18T22:17:29.537Z,29.80
2022-11-18T22:19:59.855Z,29.79
2022-11-18T22:22:30.211Z,29.78
2022-11-18T22:25:00.535Z,29.78
2022-11-18T22:27:30.663Z,29.79
2022-11-18T22:30:00.913Z,29.78
2022-11-18T22:32:31.828Z,29.80
2022-11-18T22:35:02.232Z,29.80
2022-11-18T22:37:32.610Z,29.80
2022-11-18T22:40:02.692Z,29.81
2022-11-18T22:42:52.025Z,29.80
2022-11-18T22:45:22.515Z,29.78
2022-11-18T22:47:56.264Z,29.78
2022-11-18T22:50:26.564Z,29.77
2022-11-18T22:52:56.923Z,29.77
2022-11-18T22:55:27.200Z,29.77
2022-11-18T22:57:57.539Z,29.77
2022-11-18T23:00:27.772Z,29.77
2022-11-18T23:02:58.090Z,29.78
2022-11-18T23:05:28.440Z,29.77
2022-11-18T23:07:58.733Z,29.76
2022-11-18T23:10:28.868Z,29.77
2022-11-18T23:13:17.669Z,29.75
2022-11-18T23:15:48.529Z,29.78
2022-11-18T23:18:18.974Z,29.78
2022-11-18T23:20:49.234Z,29.76
2022-11-18T23:23:20.709Z,29.75
2022-11-18T23:25:51.027Z,29.76
2022-11-18T23:28:21.162Z,29.75
2022-11-18T23:30:51.501Z,29.77
2022-11-18T23:33:21.808Z,29.76
2022-11-18T23:35:55.744Z,29.76
2022-11-18T23:38:26.353Z,29.74
2022-11-18T23:41:01.268Z,29.73
2022-11-18T23:43:32.820Z,29.71
2022-11-18T23:46:03.854Z,29.73
2022-11-18T23:48:42.804Z,29.73
2022-11-18T23:51:15.653Z,29.73
2022-11-18T23:53:47.394Z,29.73
2022-11-18T23:56:20.205Z,29.73
2022-11-18T23:58:53.654Z,29.73
